Time;durP1;ratioP1;P1;durP2;ratioP2;P2;SDS_P1;SDS_P2;PMS_P1;PMS_P2;Temp;Humidity;BMP_temperature;BMP_pressure;BME280_temperature;BME280_humidity;BME280_pressure;Samples;Min_cycle;Max_cycle;Signal;HPM_P1;HPM_P2
2022/11/22 00:02:16;;;;;;;;;;;;;;;-144.99;100.00;52656.00;5020652;28;19948;-65
2022/11/22 00:04:43;;;;;;;;;;;;;;;-144.99;100.00;52578.53;5023020;28;20030;-68
2022/11/22 00:07:11;;;;;;;;;;;;;;;-144.99;100.00;52619.31;5012111;28;19985;-68
2022/11/22 00:09:37;;;;;;;;;;;;;;;-144.99;100.00;52639.69;4989218;28;19987;-68
2022/11/22 00:12:04;;;;;;;;;;;;;;;-144.99;100.00;52611.16;4996274;28;19989;-68
2022/11/22 00:14:30;;;;;;;;;;;;;;;-144.99;100.00;52570.38;5029138;28;19955;-68
2022/11/22 00:16:57;;;;;;;;;;;;;;;-144.99;100.00;52598.94;5025361;28;19996;-67
2022/11/22 00:19:23;;;;;;;;;;;;;;;-144.99;100.00;52633.59;5010184;28;20370;-68
2022/11/22 00:21:50;;;;;;;;;;;;;;;-144.99;100.00;52594.84;5015700;28;19925;-68
2022/11/22 00:24:18;;;;;;;;;;;;;;;-144.99;100.00;52621.34;5016678;28;20432;-67
2022/11/22 00:26:44;;;;;;;;;;;;;;;-144.99;100.00;52598.94;5018180;28;20052;-68
2022/11/22 00:29:12;;;;;;;;;;;;;;;-144.99;100.00;52619.31;5009794;28;20096;-67
2022/11/22 00:31:39;;;;;;;;;;;;;;;-144.99;100.00;52643.78;4998302;28;20017;-67
2022/11/22 00:34:05;;;;;;;;;;;;;;;-144.99;100.00;52641.72;5022721;28;20295;-67
2022/11/22 00:36:32;;;;;;;;;;;;;;;-144.99;100.00;52592.81;5002098;28;20372;-65
2022/11/22 00:38:59;;;;;;;;;;;;;;;-144.99;100.00;52596.88;4999221;28;20025;-65
2022/11/22 00:41:26;;;;;;;;;;;;;;;-144.99;100.00;52645.81;4990653;28;20058;-67
2022/11/22 00:43:53;;;;;;;;;;;;;;;-144.99;100.00;52594.84;5024549;28;19936;-70
2022/11/22 00:46:19;;;;;;;;;;;;;;;-144.99;100.00;52623.38;4997491;28;20024;-70
2022/11/22 00:48:46;;;;;;;;;;;;;;;-144.99;100.00;52582.63;5009709;28;19988;-67
2022/11/22 00:51:12;;;;;;;;;;;;;;;-144.99;100.00;52635.63;5009015;28;19999;-68
2022/11/22 00:53:39;;;;;;;;;;;;;;;-144.99;100.00;52586.69;5014066;28;19980;-72
2022/11/22 00:56:05;;;;;;;;;;;;;;;-144.99;100.00;52627.47;5031567;28;19967;-70
2022/11/22 00:58:33;;;;;;;;;;;;;;;-144.99;100.00;52586.69;5009601;28;19925;-68
2022/11/22 01:01:00;;;;;;;;;;;;;;;-144.99;100.00;52607.09;5008978;28;19972;-69
2022/11/22 01:03:26;;;;;;;;;;;;;;;-144.99;100.00;52645.81;5004077;28;20032;-67
2022/11/22 01:05:53;;;;;;;;;;;;;;;-144.99;100.00;52660.09;5020564;28;20003;-69
2022/11/22 01:08:19;;;;;;;;;;;;;;;-144.99;100.00;52578.53;5009049;28;19968;-68
2022/11/22 01:10:46;;;;;;;;;;;;;;;-144.99;100.00;52598.94;5005446;28;20054;-68
2022/11/22 01:13:12;;;;;;;;;;;;;;;-144.99;100.00;52635.63;5003882;28;20424;-67
2022/11/22 01:15:40;;;;;;;;;;;;;;;-144.99;100.00;52615.25;5019381;28;20454;-68
2022/11/22 01:18:07;;;;;;;;;;;;;;;-144.99;100.00;52607.09;4998442;28;20290;-68
2022/11/22 01:20:33;;;;;;;;;;;;;;;-144.99;100.00;52627.47;5005630;28;20041;-69
2022/11/22 01:22:59;;;;;;;;;;;;;;;-144.99;100.00;52598.94;4992205;28;19969;-71
2022/11/22 01:25:26;;;;;;;;;;;;;;;-144.99;100.00;52611.16;5009214;28;20026;-69
2022/11/22 01:27:52;;;;;;;;;;;;;;;-144.99;100.00;52578.53;5016565;28;19930;-68
2022/11/22 01:30:19;;;;;;;;;;;;;;;-144.99;100.00;52629.50;4990609;28;20033;-70
2022/11/22 01:32:47;;;;;;;;;;;;;;;-144.99;100.00;52582.63;4989101;28;20012;-70
2022/11/22 01:35:13;;;;;;;;;;;;;;;-144.99;100.00;52570.38;5016910;28;19992;-68
2022/11/22 01:37:40;;;;;;;;;;;;;;;-144.99;100.00;52594.84;5006008;28;19991;-69
2022/11/22 01:40:07;;;;;;;;;;;;;;;-144.99;100.00;52566.31;5019406;28;19947;-68
2022/11/22 01:42:46;;;;;;;;;;;;;;;-144.99;100.00;52592.81;5014206;28;20018;-71
2022/11/22 01:45:31;;;;;;;;;;;;;;;-144.99;100.00;52660.09;5007941;28;19941;-70
2022/11/22 01:47:59;;;;;;;;;;;;;;;-144.99;100.00;52647.84;5010616;28;19941;-69
2022/11/22 01:50:26;;;;;;;;;;;;;;;-144.99;100.00;52594.84;5008218;28;19968;-70
2022/11/22 01:52:52;;;;;;;;;;;;;;;-144.99;100.00;52586.69;5012737;28;19955;-68
2022/11/22 01:55:19;;;;;;;;;;;;;;;-144.99;100.00;52623.38;5026208;28;20046;-68
2022/11/22 01:57:46;;;;;;;;;;;;;;;-144.99;100.00;52576.50;5009251;28;20061;-69
2022/11/22 02:00:15;;;;;;;;;;;;;;;-144.99;100.00;52586.69;5008015;28;20006;-69
2022/11/22 02:02:41;;;;;;;;;;;;;;;-144.99;100.00;52562.25;5013028;28;20351;-69
2022/11/22 02:05:11;;;;;;;;;;;;;;;-144.99;100.00;52598.94;5015312;28;19988;-69
2022/11/22 02:07:41;;;;;;;;;;;;;;;-144.99;100.00;52619.31;5011394;28;20103;-68
2022/11/22 02:10:08;;;;;;;;;;;;;;;-144.99;100.00;52588.75;4997288;28;19998;-68
2022/11/22 02:12:36;;;;;;;;;;;;;;;-144.99;100.00;52603.00;5007533;28;20520;-68
2022/11/22 02:15:03;;;;;;;;;;;;;;;-144.99;100.00;52623.38;5025042;28;20011;-70
2022/11/22 02:17:30;;;;;;;;;;;;;;;-144.99;100.00;52582.63;5023620;28;19971;-70
2022/11/22 02:19:56;;;;;;;;;;;;;;;-144.99;100.00;52631.53;5009148;28;20035;-67
2022/11/22 02:22:31;;;;;;;;;;;;;;;-144.99;100.00;52623.38;5011421;28;19964;-74
2022/11/22 02:24:59;;;;;;;;;;;;;;;-144.99;100.00;52627.47;5034729;28;20305;-71
2022/11/22 02:27:27;;;;;;;;;;;;;;;-144.99;100.00;52623.38;5012537;28;20015;-70
2022/11/22 02:29:54;;;;;;;;;;;;;;;-144.99;100.00;52609.13;5017248;28;19936;-69
2022/11/22 02:32:20;;;;;;;;;;;;;;;-144.99;100.00;52603.00;5016787;28;19983;-68
2022/11/22 02:34:48;;;;;;;;;;;;;;;-144.99;100.00;52574.47;5022717;28;19998;-67
2022/11/22 02:37:17;;;;;;;;;;;;;;;-144.99;100.00;52631.53;5014578;28;19975;-67
2022/11/22 02:39:45;;;;;;;;;;;;;;;-144.99;100.00;52603.00;4996992;28;20029;-69
2022/11/22 02:42:11;;;;;;;;;;;;;;;-144.99;100.00;52594.84;4992081;28;20012;-67
2022/11/22 02:44:40;;;;;;;;;;;;;;;-144.99;100.00;52611.16;5006229;28;19940;-69
2022/11/22 02:47:06;;;;;;;;;;;;;;;-144.99;100.00;52598.94;5022681;28;19987;-68
2022/11/22 02:49:33;;;;;;;;;;;;;;;-144.99;100.00;52611.16;5010891;28;19972;-68
2022/11/22 02:51:59;;;;;;;;;;;;;;;-144.99;100.00;52615.25;5014857;28;20403;-67
2022/11/22 02:54:26;;;;;;;;;;;;;;;-144.99;100.00;52605.03;5022372;28;20345;-69
2022/11/22 02:56:52;;;;;;;;;;;;;;;-144.99;100.00;52596.88;5023860;28;19984;-68
2022/11/22 02:59:19;;;;;;;;;;;;;;;-144.99;100.00;52598.94;5008602;28;20053;-68
2022/11/22 03:01:47;;;;;;;;;;;;;;;-144.99;100.00;52574.47;5007347;28;20170;-69
2022/11/22 03:04:23;;;;;;;;;;;;;;;-144.99;100.00;52631.53;5028263;28;20001;-68
2022/11/22 03:06:50;;;;;;;;;;;;;;;-144.99;100.00;52615.25;5040962;28;20013;-67
2022/11/22 03:09:16;;;;;;;;;;;;;;;-144.99;100.00;52590.78;5021220;28;19945;-68
2022/11/22 03:11:43;;;;;;;;;;;;;;;-144.99;100.00;52607.09;5004876;28;19955;-66
2022/11/22 03:14:09;;;;;;;;;;;;;;;-144.99;100.00;52574.47;5017417;28;20050;-67
2022/11/22 03:16:35;;;;;;;;;;;;;;;-144.99;100.00;52623.38;5012285;28;20459;-67
2022/11/22 03:19:03;;;;;;;;;;;;;;;-144.99;100.00;52629.50;5010726;28;20052;-67
2022/11/22 03:21:30;;;;;;;;;;;;;;;-144.99;100.00;52603.00;4998702;28;20005;-69
2022/11/22 03:23:56;;;;;;;;;;;;;;;-144.99;100.00;52635.63;5012409;28;19998;-69
2022/11/22 03:26:23;;;;;;;;;;;;;;;-144.99;100.00;52586.69;5017741;28;19992;-69
2022/11/22 03:28:49;;;;;;;;;;;;;;;-144.99;100.00;52574.47;5010610;28;19950;-69
2022/11/22 03:31:16;;;;;;;;;;;;;;;-144.99;100.00;52615.25;5011293;28;20061;-69
2022/11/22 03:33:42;;;;;;;;;;;;;;;-144.99;100.00;52584.66;5017046;28;20017;-68
2022/11/22 03:36:10;;;;;;;;;;;;;;;-144.99;100.00;52586.69;5013711;28;19943;-69
2022/11/22 03:38:36;;;;;;;;;;;;;;;-144.99;100.00;52625.44;5022892;28;20487;-68
2022/11/22 03:41:03;;;;;;;;;;;;;;;-144.99;100.00;52566.31;5013875;28;20010;-68
2022/11/22 03:43:29;;;;;;;;;;;;;;;-144.99;100.00;52586.69;5012923;28;20012;-69
2022/11/22 03:45:56;;;;;;;;;;;;;;;-144.99;100.00;52558.16;5016902;28;19969;-69
2022/11/22 03:48:23;;;;;;;;;;;;;;;-144.99;100.00;52590.78;5030127;28;19941;-71
2022/11/22 03:50:49;;;;;;;;;;;;;;;-144.99;100.00;52603.00;5020191;28;20003;-72
2022/11/22 03:53:17;;;;;;;;;;;;;;;-144.99;100.00;52623.38;5023635;28;20052;-70
2022/11/22 03:55:43;;;;;;;;;;;;;;;-144.99;100.00;52566.31;5028682;28;20018;-64
2022/11/22 03:58:10;;;;;;;;;;;;;;;-144.99;100.00;52611.16;5009599;28;19985;-69
2022/11/22 04:00:36;;;;;;;;;;;;;;;-144.99;100.00;52619.31;5009282;28;20054;-69
2022/11/22 04:03:03;;;;;;;;;;;;;;;-144.99;100.00;52582.63;5016984;28;19948;-69
2022/11/22 04:05:29;;;;;;;;;;;;;;;-144.99;100.00;52605.03;5029310;28;19993;-68
2022/11/22 04:07:57;;;;;;;;;;;;;;;-144.99;100.00;52615.25;5009846;28;20458;-69
2022/11/22 04:10:24;;;;;;;;;;;;;;;-144.99;100.00;52607.09;5010031;28;20045;-69
2022/11/22 04:12:51;;;;;;;;;;;;;;;-144.99;100.00;52613.19;5016750;28;19968;-69
2022/11/22 04:15:17;;;;;;;;;;;;;;;-144.99;100.00;52611.16;5020417;28;20086;-69
2022/11/22 04:17:44;;;;;;;;;;;;;;;-144.99;100.00;52627.47;5009608;28;20481;-67
2022/11/22 04:22:57;;;;;;;;;;;;;;;-144.99;100.00;52554.09;5002060;28;19948;-67
2022/11/22 04:25:23;;;;;;;;;;;;;;;-144.99;100.00;52590.78;5021506;28;19937;-67
2022/11/22 04:27:50;;;;;;;;;;;;;;;-144.99;100.00;52586.69;5013894;28;19944;-66
2022/11/22 04:30:17;;;;;;;;;;;;;;;-144.99;100.00;52578.53;4999363;28;20038;-62
2022/11/22 04:32:45;;;;;;;;;;;;;;;-144.99;100.00;52611.16;5039300;28;20011;-71
2022/11/22 04:35:11;;;;;;;;;;;;;;;-144.99;100.00;52566.31;5028988;28;20264;-70
2022/11/22 04:37:38;;;;;;;;;;;;;;;-144.99;100.00;52625.44;5001312;28;19931;-70
2022/11/22 04:40:05;;;;;;;;;;;;;;;-144.99;100.00;52594.84;4993975;28;19957;-70
2022/11/22 04:45:16;;;;;;;;;;;;;;;-144.99;100.00;52572.44;5009728;28;20090;-70
2022/11/22 04:53:17;;;;;;;;;;;;;;;-144.99;100.00;52580.59;5000775;28;20014;-70
2022/11/22 04:55:44;;;;;;;;;;;;;;;-144.99;100.00;52609.13;5011682;28;20011;-67
2022/11/22 04:58:12;;;;;;;;;;;;;;;-144.99;100.00;52603.00;5008317;28;20040;-67
2022/11/22 05:00:39;;;;;;;;;;;;;;;-144.99;100.00;52594.84;5007236;28;20064;-66
2022/11/22 05:03:06;;;;;;;;;;;;;;;-144.99;100.00;52570.38;5008520;28;20379;-67
2022/11/22 05:05:34;;;;;;;;;;;;;;;-144.99;100.00;52578.53;5009258;28;20385;-67
2022/11/22 05:08:01;;;;;;;;;;;;;;;-144.99;100.00;52562.25;5007757;28;20366;-67
2022/11/22 05:10:27;;;;;;;;;;;;;;;-144.99;100.00;52656.00;5003391;28;19982;-67
2022/11/22 05:12:54;;;;;;;;;;;;;;;-144.99;100.00;52623.38;5011472;28;19979;-67
2022/11/22 05:15:22;;;;;;;;;;;;;;;-144.99;100.00;52615.25;5036187;22;20346;-67
2022/11/22 05:17:48;;;;;;;;;;;;;;;-144.99;100.00;52558.16;5039705;28;19989;-71
2022/11/22 05:20:15;;;;;;;;;;;;;;;-144.99;100.00;52578.53;5042746;28;20443;-71
2022/11/22 05:25:25;;;;;;;;;;;;;;;-144.99;100.00;52590.78;5027483;28;19966;-72
2022/11/22 05:27:53;;;;;;;;;;;;;;;-144.99;100.00;52607.09;5035119;28;20388;-71
2022/11/22 05:30:19;;;;;;;;;;;;;;;-144.99;100.00;52562.25;5035847;28;19962;-71
2022/11/22 05:32:47;;;;;;;;;;;;;;;-144.99;100.00;52607.09;5020435;28;20306;-73
2022/11/22 05:35:13;;;;;;;;;;;;;;;-144.99;100.00;52566.31;5024690;28;20314;-71
2022/11/22 05:37:40;;;;;;;;;;;;;;;-144.99;100.00;52574.47;5016522;28;19937;-71
2022/11/22 05:40:07;;;;;;;;;;;;;;;-144.99;100.00;52562.25;5022539;28;19960;-70
2022/11/22 05:42:34;;;;;;;;;;;;;;;-144.99;100.00;52574.47;5012822;28;19976;-71
2022/11/22 05:45:00;;;;;;;;;;;;;;;-144.99;100.00;52570.38;5026994;28;20174;-70
2022/11/22 05:47:27;;;;;;;;;;;;;;;-144.99;100.00;52639.69;5025726;28;19935;-71
2022/11/22 05:49:55;;;;;;;;;;;;;;;-144.99;100.00;52566.31;5018589;28;19939;-70
2022/11/22 05:52:21;;;;;;;;;;;;;;;-144.99;100.00;52611.16;5019563;28;20323;-70
2022/11/22 05:54:48;;;;;;;;;;;;;;;-144.99;100.00;52605.03;5025402;28;20392;-70
2022/11/22 05:57:14;;;;;;;;;;;;;;;-144.99;100.00;52598.94;5027088;28;19964;-72
2022/11/22 05:59:41;;;;;;;;;;;;;;;-144.99;100.00;52611.16;5017271;28;19960;-64
2022/11/22 06:02:08;;;;;;;;;;;;;;;-144.99;100.00;52590.78;5015776;28;19963;-81
2022/11/22 06:04:34;;;;;;;;;;;;;;;-144.99;100.00;52584.66;5028455;28;20397;-81
2022/11/22 06:07:02;;;;;;;;;;;;;;;-144.99;100.00;52578.53;5025929;28;19990;-80
2022/11/22 06:09:29;;;;;;;;;;;;;;;-144.99;100.00;52590.78;5027793;28;19964;-81
2022/11/22 06:11:56;;;;;;;;;;;;;;;-144.99;100.00;52578.53;5036629;28;19997;-81
2022/11/22 06:14:23;;;;;;;;;;;;;;;-144.99;100.00;52586.69;5026600;28;19929;-80
2022/11/22 06:16:50;;;;;;;;;;;;;;;-144.99;100.00;52592.81;5038857;28;19947;-72
2022/11/22 06:19:17;;;;;;;;;;;;;;;-144.99;100.00;52582.63;5019389;28;19941;-73
2022/11/22 06:22:02;;;;;;;;;;;;;;;-144.99;100.00;52594.84;4940036;28;10000595;-72
2022/11/22 06:24:29;;;;;;;;;;;;;;;-144.99;100.00;52566.31;5021604;28;20009;-73
2022/11/22 06:26:55;;;;;;;;;;;;;;;-144.99;100.00;52603.00;5017218;28;20115;-72
2022/11/22 06:29:22;;;;;;;;;;;;;;;-144.99;100.00;52611.16;5018982;28;19945;-74
2022/11/22 06:31:48;;;;;;;;;;;;;;;-144.99;100.00;52570.38;5024448;28;19960;-73
2022/11/22 06:34:15;;;;;;;;;;;;;;;-144.99;100.00;52582.63;5010565;28;20022;-73
2022/11/22 06:36:41;;;;;;;;;;;;;;;-144.99;100.00;52562.25;5013595;28;20394;-74
2022/11/22 06:39:11;;;;;;;;;;;;;;;-144.99;100.00;52607.09;5010323;28;19944;-73
2022/11/22 06:41:38;;;;;;;;;;;;;;;-144.99;100.00;52586.69;5030219;28;20423;-74
2022/11/22 06:44:05;;;;;;;;;;;;;;;-144.99;100.00;52582.63;5018024;28;19965;-74
2022/11/22 06:46:32;;;;;;;;;;;;;;;-144.99;100.00;52607.09;5016524;28;19956;-74
2022/11/22 06:48:59;;;;;;;;;;;;;;;-144.99;100.00;52639.69;5018496;28;19999;-73
2022/11/22 06:51:27;;;;;;;;;;;;;;;-144.99;100.00;52615.25;5029932;28;20010;-73
2022/11/22 06:53:54;;;;;;;;;;;;;;;-144.99;100.00;52570.38;5019427;28;19952;-75
2022/11/22 06:56:23;;;;;;;;;;;;;;;-144.99;100.00;52582.63;5022403;28;20246;-74
2022/11/22 06:58:51;;;;;;;;;;;;;;;-144.99;100.00;52541.84;5025999;28;20009;-74
2022/11/22 07:01:18;;;;;;;;;;;;;;;-144.99;100.00;52603.00;5023731;28;20442;-73
2022/11/22 07:03:45;;;;;;;;;;;;;;;-144.99;100.00;52584.66;5024320;28;19939;-73
2022/11/22 07:06:12;;;;;;;;;;;;;;;-144.99;100.00;52617.28;5024367;28;19995;-73
2022/11/22 07:08:39;;;;;;;;;;;;;;;-144.99;100.00;52578.53;5010873;28;19955;-73
2022/11/22 07:11:07;;;;;;;;;;;;;;;-144.99;100.00;52590.78;5022726;28;20387;-74
2022/11/22 07:13:36;;;;;;;;;;;;;;;-144.99;100.00;52574.47;5022787;28;20317;-74
2022/11/22 07:16:03;;;;;;;;;;;;;;;-144.99;100.00;52615.25;5019859;28;20006;-74
2022/11/22 07:18:30;;;;;;;;;;;;;;;-144.99;100.00;52558.16;5026821;28;20007;-75
2022/11/22 07:21:00;;;;;;;;;;;;;;;-144.99;100.00;52574.47;5023268;28;19959;-74
2022/11/22 07:23:26;;;;;;;;;;;;;;;-144.99;100.00;52582.63;5034526;28;19937;-73
2022/11/22 07:25:53;;;;;;;;;;;;;;;-144.99;100.00;52582.63;5029334;28;19943;-73
2022/11/22 07:28:19;;;;;;;;;;;;;;;-144.99;100.00;52586.69;5024256;28;19945;-74
2022/11/22 07:30:47;;;;;;;;;;;;;;;-144.99;100.00;52576.50;5018989;28;20236;-75
2022/11/22 07:33:14;;;;;;;;;;;;;;;-144.99;100.00;52594.84;5009584;28;19966;-75
2022/11/22 07:35:40;;;;;;;;;;;;;;;-144.99;100.00;52578.53;5018195;28;20430;-74
2022/11/22 07:38:07;;;;;;;;;;;;;;;-144.99;100.00;52594.84;5010104;28;19942;-73
2022/11/22 07:40:33;;;;;;;;;;;;;;;-144.99;100.00;52615.25;5022892;28;19963;-73
2022/11/22 07:43:00;;;;;;;;;;;;;;;-144.99;100.00;52541.84;5018541;28;19999;-73
2022/11/22 07:45:27;;;;;;;;;;;;;;;-144.99;100.00;52578.53;5016798;28;19950;-72
2022/11/22 07:47:54;;;;;;;;;;;;;;;-144.99;100.00;52619.31;5029011;28;19950;-73
2022/11/22 07:50:21;;;;;;;;;;;;;;;-144.99;100.00;52594.84;5022626;28;19970;-73
2022/11/22 07:52:54;;;;;;;;;;;;;;;-144.99;100.00;52609.13;4667918;28;10000257;-73
2022/11/22 07:55:20;;;;;;;;;;;;;;;-144.99;100.00;52590.78;5024837;28;20836;-74
2022/11/22 07:57:47;;;;;;;;;;;;;;;-144.99;100.00;52594.84;5017146;28;19945;-73
2022/11/22 08:00:14;;;;;;;;;;;;;;;-144.99;100.00;52566.31;5028535;28;20211;-72
2022/11/22 08:02:40;;;;;;;;;;;;;;;-144.99;100.00;52570.38;5030539;28;20003;-73
2022/11/22 08:05:09;;;;;;;;;;;;;;;-144.99;100.00;52598.94;5021362;28;20050;-72
2022/11/22 08:07:35;;;;;;;;;;;;;;;-144.99;100.00;52586.69;5020163;28;19975;-74
2022/11/22 08:10:02;;;;;;;;;;;;;;;-144.99;100.00;52578.53;5015202;28;19955;-73
2022/11/22 08:12:28;;;;;;;;;;;;;;;-144.99;100.00;52570.38;5033945;28;19967;-74
2022/11/22 08:14:55;;;;;;;;;;;;;;;-144.99;100.00;52570.38;5031955;28;19936;-73
2022/11/22 08:17:21;;;;;;;;;;;;;;;-144.99;100.00;52568.34;5041294;28;20444;-71
2022/11/22 08:19:52;;;;;;;;;;;;;;;-144.99;100.00;52582.63;5043740;28;19928;-75
2022/11/22 08:22:20;;;;;;;;;;;;;;;-144.99;100.00;52572.44;5028302;28;20000;-74
2022/11/22 08:24:46;;;;;;;;;;;;;;;-144.99;100.00;52570.38;5033911;28;20025;-73
2022/11/22 08:27:15;;;;;;;;;;;;;;;-144.99;100.00;52574.47;5025376;28;20507;-73
2022/11/22 08:29:41;;;;;;;;;;;;;;;-144.99;100.00;52582.63;5023192;28;20380;-72
2022/11/22 08:32:08;;;;;;;;;;;;;;;-144.99;100.00;52562.25;5028076;28;20383;-72
2022/11/22 08:34:34;;;;;;;;;;;;;;;-144.99;100.00;52592.81;5015463;28;20029;-72
2022/11/22 08:37:01;;;;;;;;;;;;;;;-144.99;100.00;52558.16;5011416;28;19940;-72
2022/11/22 08:39:29;;;;;;;;;;;;;;;-144.99;100.00;52594.84;5025494;28;19945;-72
2022/11/22 08:41:55;;;;;;;;;;;;;;;-144.99;100.00;52564.28;5020211;28;20650;-72
2022/11/22 08:44:22;;;;;;;;;;;;;;;-144.99;100.00;52562.25;5011636;28;20034;-72
2022/11/22 08:46:49;;;;;;;;;;;;;;;-144.99;100.00;52574.47;5021002;28;19939;-72
2022/11/22 08:49:15;;;;;;;;;;;;;;;-144.99;100.00;52574.47;5012252;28;20437;-73
2022/11/22 08:51:43;;;;;;;;;;;;;;;-144.99;100.00;52621.34;5010001;28;19966;-72
2022/11/22 08:54:10;;;;;;;;;;;;;;;-144.99;100.00;52607.09;5019303;28;19951;-72
2022/11/22 08:56:38;;;;;;;;;;;;;;;-144.99;100.00;52578.53;5024004;28;20003;-72
2022/11/22 08:59:04;;;;;;;;;;;;;;;-144.99;100.00;52603.00;5011271;28;19971;-72
2022/11/22 09:01:31;;;;;;;;;;;;;;;-144.99;100.00;52613.19;5022371;28;20031;-73
2022/11/22 09:03:58;;;;;;;;;;;;;;;-144.99;100.00;52574.47;5014594;28;19974;-72
2022/11/22 09:06:24;;;;;;;;;;;;;;;-144.99;100.00;52621.34;5019569;28;19942;-74
2022/11/22 09:08:51;;;;;;;;;;;;;;;-144.99;100.00;52570.38;5013927;28;19992;-73
2022/11/22 09:11:18;;;;;;;;;;;;;;;-144.99;100.00;52562.25;5021647;28;19963;-73
2022/11/22 09:13:46;;;;;;;;;;;;;;;-144.99;100.00;52611.16;5024139;28;20407;-73
2022/11/22 09:16:14;;;;;;;;;;;;;;;-144.99;100.00;52562.25;5018437;28;20561;-74
2022/11/22 09:18:40;;;;;;;;;;;;;;;-144.99;100.00;52574.47;5024936;28;20019;-72
2022/11/22 09:21:08;;;;;;;;;;;;;;;-144.99;100.00;52578.53;5010771;28;19975;-73
2022/11/22 09:23:34;;;;;;;;;;;;;;;-144.99;100.00;52564.28;5007150;28;20002;-74
2022/11/22 09:26:02;;;;;;;;;;;;;;;-144.99;100.00;52554.09;5023013;28;20289;-73
2022/11/22 09:28:28;;;;;;;;;;;;;;;-144.99;100.00;52570.38;5023928;28;19969;-73
2022/11/22 09:31:00;;;;;;;;;;;;;;;-144.99;100.00;52594.84;5007557;28;20016;-72
2022/11/22 09:33:27;;;;;;;;;;;;;;;-144.99;100.00;52541.84;5008210;28;20057;-72
2022/11/22 09:35:58;;;;;;;;;;;;;;;-144.99;100.00;52550.00;5016394;28;20267;-72
2022/11/22 09:38:25;;;;;;;;;;;;;;;-144.99;100.00;52554.09;5017660;28;20461;-73
2022/11/22 09:40:51;;;;;;;;;;;;;;;-144.99;100.00;52590.78;5007682;28;20024;-72
2022/11/22 09:43:22;;;;;;;;;;;;;;;-144.99;100.00;52566.31;5023482;28;19937;-72
2022/11/22 09:46:06;;;;;;;;;;;;;;;-144.99;100.00;52574.47;5023264;28;19944;-74
2022/11/22 09:48:48;;;;;;;;;;;;;;;-144.99;100.00;52582.63;5031730;28;19969;-73
2022/11/22 09:51:17;;;;;;;;;;;;;;;-144.99;100.00;52558.16;5013334;28;20493;-73
2022/11/22 09:53:46;;;;;;;;;;;;;;;-144.99;100.00;52578.53;5022864;28;20417;-72
2022/11/22 09:56:15;;;;;;;;;;;;;;;-144.99;100.00;52603.00;5023964;28;19971;-73
2022/11/22 09:58:45;;;;;;;;;;;;;;;-144.99;100.00;52578.53;5023046;28;19953;-74
2022/11/22 10:01:14;;;;;;;;;;;;;;;-144.99;100.00;52562.25;5025447;28;20061;-73
2022/11/22 10:03:43;;;;;;;;;;;;;;;-144.99;100.00;52586.69;5020324;28;19987;-74
2022/11/22 10:06:13;;;;;;;;;;;;;;;-144.99;100.00;52613.19;5025352;28;19953;-74
2022/11/22 10:08:43;;;;;;;;;;;;;;;-144.99;100.00;52582.63;5017610;28;20430;-73
2022/11/22 10:11:13;;;;;;;;;;;;;;;-144.99;100.00;52574.47;5010221;28;20447;-73
2022/11/22 10:13:43;;;;;;;;;;;;;;;-144.99;100.00;52562.25;5019531;28;19987;-74
2022/11/22 10:16:13;;;;;;;;;;;;;;;-144.99;100.00;52582.63;5025934;28;19999;-73
2022/11/22 10:18:41;;;;;;;;;;;;;;;-144.99;100.00;52570.38;5030476;28;20009;-73
2022/11/22 10:21:09;;;;;;;;;;;;;;;-144.99;100.00;52590.78;5021181;28;20051;-73
2022/11/22 10:23:37;;;;;;;;;;;;;;;-144.99;100.00;52574.47;5021475;28;20020;-73
2022/11/22 10:26:05;;;;;;;;;;;;;;;-144.99;100.00;52568.34;5025345;28;20414;-74
2022/11/22 10:28:34;;;;;;;;;;;;;;;-144.99;100.00;52566.31;5013074;28;19968;-74
2022/11/22 10:31:04;;;;;;;;;;;;;;;-144.99;100.00;52554.09;5020512;28;19975;-74
2022/11/22 10:33:35;;;;;;;;;;;;;;;-144.99;100.00;52570.38;5011520;28;20229;-73
2022/11/22 10:36:12;;;;;;;;;;;;;;;-144.99;100.00;52562.25;5021654;28;19991;-76
2022/11/22 10:38:47;;;;;;;;;;;;;;;-144.99;100.00;52513.31;5029267;28;20033;-75
2022/11/22 10:41:21;;;;;;;;;;;;;;;-144.99;100.00;52558.16;5016501;28;19933;-73
2022/11/22 10:43:51;;;;;;;;;;;;;;;-144.99;100.00;52539.81;5023237;28;20366;-75
2022/11/22 10:46:20;;;;;;;;;;;;;;;-144.99;100.00;52562.25;5029272;28;20034;-77
2022/11/22 10:48:50;;;;;;;;;;;;;;;-144.99;100.00;52554.09;5019700;28;19955;-76
2022/11/22 10:51:20;;;;;;;;;;;;;;;-144.99;100.00;52574.47;5015523;28;20039;-76
2022/11/22 10:53:54;;;;;;;;;;;;;;;-144.99;100.00;52609.13;5027887;28;19929;-77
2022/11/22 10:56:25;;;;;;;;;;;;;;;-144.99;100.00;52550.00;5031205;28;20379;-77
2022/11/22 10:58:57;;;;;;;;;;;;;;;-144.99;100.00;52582.63;5024521;28;19962;-77
2022/11/22 11:01:29;;;;;;;;;;;;;;;-144.99;100.00;52543.91;5028581;28;19929;-77
2022/11/22 11:03:59;;;;;;;;;;;;;;;-144.99;100.00;52574.47;5012454;28;20047;-76
2022/11/22 11:06:33;;;;;;;;;;;;;;;-144.99;100.00;52545.94;5030136;28;20060;-77
2022/11/22 11:09:04;;;;;;;;;;;;;;;-144.99;100.00;52570.38;5016044;28;19968;-76
2022/11/22 11:11:30;;;;;;;;;;;;;;;-144.99;100.00;52554.09;5023927;28;20651;-75
2022/11/22 11:13:59;;;;;;;;;;;;;;;-144.99;100.00;52564.28;5024411;28;19971;-75
2022/11/22 11:16:27;;;;;;;;;;;;;;;-144.99;100.00;52570.38;5029382;28;20292;-76
2022/11/22 11:18:56;;;;;;;;;;;;;;;-144.99;100.00;52552.03;5026648;28;20166;-76
2022/11/22 11:21:24;;;;;;;;;;;;;;;-144.99;100.00;52562.25;5021491;28;20367;-75
2022/11/22 11:23:51;;;;;;;;;;;;;;;-144.99;100.00;52566.31;5029848;23;20032;-70
2022/11/22 11:26:20;;;;;;;;;;;;;;;-144.99;100.00;52529.63;5042730;28;20393;-70
2022/11/22 11:28:47;;;;;;;;;;;;;;;-144.99;100.00;52603.00;4698332;28;10000125;-70
2022/11/22 11:31:17;;;;;;;;;;;;;;;-144.99;100.00;52556.13;5027453;28;20083;-70
2022/11/22 11:33:44;;;;;;;;;;;;;;;-144.99;100.00;52523.50;5045752;28;19945;-69
2022/11/22 11:36:11;;;;;;;;;;;;;;;-144.99;100.00;52574.47;5047744;28;19967;-70
2022/11/22 11:38:48;;;;;;;;;;;;;;;-144.99;100.00;52574.47;5037930;28;19930;-70
2022/11/22 11:41:20;;;;;;;;;;;;;;;-144.99;100.00;52570.38;5039794;28;19991;-69
2022/11/22 11:43:48;;;;;;;;;;;;;;;-144.99;100.00;52578.53;5056078;28;20432;-69
2022/11/22 11:46:15;;;;;;;;;;;;;;;-144.99;100.00;52582.63;5050111;28;19940;-70
2022/11/22 11:48:42;;;;;;;;;;;;;;;-144.99;100.00;52552.03;5036329;28;19951;-69
2022/11/22 11:51:13;;;;;;;;;;;;;;;-144.99;100.00;52560.19;5029722;28;20021;-69
2022/11/22 11:53:40;;;;;;;;;;;;;;;-144.99;100.00;52529.63;5039577;28;19943;-68
2022/11/22 11:56:40;;;;;;;;;;;;;;;-144.99;100.00;52566.31;5052842;28;20042;-70
2022/11/22 11:59:11;;;;;;;;;;;;;;;-144.99;100.00;52547.97;5039677;28;19933;-70
2022/11/22 12:01:42;;;;;;;;;;;;;;;-144.99;100.00;52582.63;5034493;28;19961;-70
2022/11/22 12:04:18;;;;;;;;;;;;;;;-144.99;100.00;52533.69;5043793;28;20402;-69
2022/11/22 12:06:52;;;;;;;;;;;;;;;-144.99;100.00;52562.25;5025780;28;19994;-69
2022/11/22 12:09:27;;;;;;;;;;;;;;;-144.99;100.00;52550.00;5025198;28;20474;-69
2022/11/22 12:11:56;;;;;;;;;;;;;;;-144.99;100.00;52550.00;5043078;28;19965;-69
2022/11/22 12:14:26;;;;;;;;;;;;;;;-144.99;100.00;52570.38;5047465;28;20013;-72
2022/11/22 12:16:56;;;;;;;;;;;;;;;-144.99;100.00;52572.44;5033583;28;20074;-69
2022/11/22 12:19:28;;;;;;;;;;;;;;;-144.99;100.00;52558.16;5051419;28;20038;-68
2022/11/22 12:21:58;;;;;;;;;;;;;;;-144.99;100.00;52574.47;5039869;28;20001;-69
2022/11/22 12:24:27;;;;;;;;;;;;;;;-144.99;100.00;52554.09;5056026;28;20005;-69
2022/11/22 12:26:55;;;;;;;;;;;;;;;-144.99;100.00;52562.25;5053352;28;20239;-68
2022/11/22 12:29:22;;;;;;;;;;;;;;;-144.99;100.00;52558.16;5025524;28;20430;-69
2022/11/22 12:31:52;;;;;;;;;;;;;;;-144.99;100.00;52562.25;5044995;28;19928;-70
2022/11/22 12:34:22;;;;;;;;;;;;;;;-144.99;100.00;52594.84;5043301;28;19946;-69
2022/11/22 12:36:50;;;;;;;;;;;;;;;-144.99;100.00;52513.31;5027808;28;20050;-70